Mingo, Ohio
Current Conditions -  °F | °C
As of 6:50 AM on Monday 22 Dec 2014 (Local Time) from KEDJ Reporting Station
Few Clouds Few Clouds  
Wind Chill: 17°   Ceiling: Unl
Heat Index: 27°   Visibility: 10mi
Dew Point: 25°   Wind: 9mph
Humidity: 93%   Direction: 130°SE
Pressure: 30.03"   Gusts: NA
Location:  40.21°N, 83.64°W
Report Text: KEDJ 221150Z AUTO 13008KT 10SM FEW042 M03/M04 A3003 RMK AO1
Loading
Personal Weather Stations






























Interactive Weather Map New forecast layout! Learn more

10-Day Weather Forecast

Advertisements
Track Severe Weather on mobile